createdAt,value
2023-02-02T00:01:59.308Z,3.54
2023-02-02T00:04:33.042Z,3.60
2023-02-02T00:07:00.055Z,3.68
2023-02-02T00:09:29.368Z,3.66
2023-02-02T00:11:56.484Z,3.76
2023-02-02T00:14:23.949Z,3.89
2023-02-02T00:16:52.649Z,3.90
2023-02-02T00:19:21.373Z,3.88
2023-02-02T00:21:48.459Z,3.94
2023-02-02T00:24:18.060Z,3.91
2023-02-02T00:26:45.540Z,3.97
2023-02-02T00:29:32.882Z,4.06
2023-02-02T00:31:59.391Z,4.04
2023-02-02T00:34:26.037Z,4.06
2023-02-02T00:36:53.142Z,4.13
2023-02-02T00:39:21.073Z,4.09
2023-02-02T00:41:48.032Z,4.08
2023-02-02T00:44:33.280Z,4.18
2023-02-02T00:46:59.779Z,4.25
2023-02-02T00:49:26.281Z,4.21
2023-02-02T00:51:52.749Z,4.14
2023-02-02T00:54:19.468Z,4.22
2023-02-02T00:56:46.026Z,4.37
2023-02-02T00:59:12.807Z,4.33
2023-02-02T01:01:39.281Z,4.30
2023-02-02T01:04:05.897Z,4.17
2023-02-02T01:06:32.423Z,4.13
2023-02-02T01:08:58.868Z,4.06
2023-02-02T01:11:25.867Z,4.11
2023-02-02T01:13:52.424Z,4.07
2023-02-02T01:16:19.143Z,4.08
2023-02-02T01:18:48.052Z,4.07
2023-02-02T01:21:14.850Z,4.07
2023-02-02T01:23:41.306Z,4.05
2023-02-02T01:26:09.181Z,4.07
2023-02-02T01:28:35.785Z,4.03
2023-02-02T01:31:06.409Z,3.98
2023-02-02T01:33:32.912Z,4.04
2023-02-02T01:36:03.213Z,3.98
2023-02-02T01:38:29.696Z,3.95
2023-02-02T01:40:57.035Z,3.80
2023-02-02T01:43:25.726Z,3.76
2023-02-02T01:45:52.793Z,3.81
2023-02-02T01:48:23.079Z,3.77
2023-02-02T01:50:51.614Z,3.73
2023-02-02T01:53:19.895Z,3.60
2023-02-02T01:55:47.474Z,3.56
2023-02-02T01:58:27.070Z,3.56
2023-02-02T02:00:53.924Z,3.52
2023-02-02T02:03:25.697Z,3.63
2023-02-02T02:05:55.044Z,3.57
2023-02-02T02:08:23.680Z,3.59
2023-02-02T02:10:50.389Z,3.57
2023-02-02T02:13:17.302Z,3.63
2023-02-02T02:16:21.520Z,3.60
2023-02-02T02:19:06.578Z,3.60
2023-02-02T02:22:14.593Z,3.59
2023-02-02T02:25:15.143Z,3.72
2023-02-02T02:27:50.709Z,3.66
2023-02-02T02:30:32.791Z,3.68
2023-02-02T02:33:05.564Z,3.68
2023-02-02T02:35:41.531Z,3.75
2023-02-02T02:38:35.003Z,3.74
2023-02-02T02:41:04.828Z,3.83
2023-02-02T02:43:33.393Z,3.88
2023-02-02T02:46:00.117Z,3.83
2023-02-02T02:48:26.630Z,3.93
2023-02-02T02:50:53.097Z,3.89
2023-02-02T02:53:22.716Z,3.88
2023-02-02T02:56:15.584Z,3.89
2023-02-02T02:58:41.982Z,3.99
2023-02-02T03:01:11.991Z,3.96
2023-02-02T03:03:44.576Z,3.95
2023-02-02T03:06:17.173Z,3.88
2023-02-02T03:08:44.052Z,3.91
2023-02-02T03:11:11.453Z,3.91
2023-02-02T03:13:38.459Z,3.83
2023-02-02T03:16:05.061Z,3.82
2023-02-02T03:18:32.692Z,3.79
2023-02-02T03:20:59.848Z,3.79
2023-02-02T03:23:26.542Z,3.67
2023-02-02T03:25:53.438Z,3.70
2023-02-02T03:28:21.466Z,3.73
2023-02-02T03:30:48.620Z,3.74
2023-02-02T03:33:15.587Z,3.77
2023-02-02T03:35:42.077Z,3.78
2023-02-02T03:38:09.121Z,3.80
2023-02-02T03:40:35.605Z,3.80
2023-02-02T03:43:02.964Z,3.78
2023-02-02T03:45:29.962Z,3.79
2023-02-02T03:47:56.383Z,3.76
2023-02-02T03:50:23.066Z,3.84
2023-02-02T03:52:49.484Z,3.77
2023-02-02T03:55:16.025Z,3.76
2023-02-02T03:57:42.470Z,3.73
2023-02-02T04:00:09.251Z,3.75
2023-02-02T04:02:35.774Z,3.77
2023-02-02T04:05:02.206Z,3.71
2023-02-02T04:07:28.697Z,3.80
2023-02-02T04:09:55.149Z,3.81
2023-02-02T04:12:21.573Z,3.84
2023-02-02T04:14:48.036Z,3.83
2023-02-02T04:17:14.495Z,3.85
2023-02-02T04:19:41.351Z,3.82
2023-02-02T04:22:08.760Z,3.85
2023-02-02T04:24:37.980Z,3.94
2023-02-02T04:27:04.605Z,3.89
2023-02-02T04:29:31.678Z,3.94
2023-02-02T04:31:58.411Z,3.96
2023-02-02T04:34:24.903Z,3.97
2023-02-02T04:36:51.391Z,4.02
2023-02-02T04:39:17.888Z,4.02
2023-02-02T04:41:44.358Z,4.05
2023-02-02T04:44:14.202Z,3.97
2023-02-02T04:46:40.679Z,4.01
2023-02-02T04:49:07.166Z,3.96
2023-02-02T04:51:34.976Z,4.06
2023-02-02T04:54:01.431Z,4.03
2023-02-02T04:56:29.147Z,3.96
2023-02-02T04:58:58.377Z,3.97
2023-02-02T05:01:24.888Z,4.03
2023-02-02T05:03:51.499Z,4.11
2023-02-02T05:06:19.373Z,4.11
2023-02-02T05:08:46.298Z,4.01
2023-02-02T05:11:14.684Z,4.05
2023-02-02T05:13:44.945Z,4.06
2023-02-02T05:16:11.999Z,4.06
2023-02-02T05:18:38.474Z,4.07
2023-02-02T05:21:05.060Z,4.06
2023-02-02T05:23:31.520Z,4.03
2023-02-02T05:25:58.029Z,4.11
2023-02-02T05:28:24.731Z,4.10
2023-02-02T05:30:51.854Z,4.10
2023-02-02T05:33:19.592Z,4.06
2023-02-02T05:35:49.346Z,4.06
2023-02-02T05:38:16.282Z,4.09
2023-02-02T05:40:42.760Z,4.04
2023-02-02T05:43:10.236Z,4.04
2023-02-02T05:45:36.720Z,4.10
2023-02-02T05:48:03.194Z,4.06
2023-02-02T05:50:29.670Z,4.07
2023-02-02T05:52:56.196Z,3.98
2023-02-02T05:55:22.900Z,4.07
2023-02-02T05:57:49.439Z,4.05
2023-02-02T06:00:16.134Z,4.06
2023-02-02T06:02:42.682Z,4.04
2023-02-02T06:05:09.372Z,4.01
2023-02-02T06:07:35.821Z,4.02
2023-02-02T06:10:02.330Z,3.97
2023-02-02T06:12:28.790Z,3.97
2023-02-02T06:14:55.277Z,4.00
2023-02-02T06:17:21.740Z,3.95
2023-02-02T06:19:48.465Z,3.99
2023-02-02T06:22:15.824Z,4.02
2023-02-02T06:24:42.391Z,4.02
2023-02-02T06:27:09.677Z,4.02
2023-02-02T06:29:36.244Z,3.99
2023-02-02T06:32:04.063Z,3.98
2023-02-02T06:34:30.523Z,3.95
2023-02-02T06:36:57.010Z,3.92
2023-02-02T06:39:23.441Z,3.93
2023-02-02T06:41:52.102Z,3.91
2023-02-02T06:44:19.726Z,3.93
2023-02-02T06:46:46.188Z,3.90
2023-02-02T06:49:12.732Z,3.92
2023-02-02T06:51:39.502Z,3.92
2023-02-02T06:54:06.030Z,3.91
2023-02-02T06:56:32.475Z,3.93
2023-02-02T06:58:58.946Z,3.91
2023-02-02T07:01:25.538Z,3.93
2023-02-02T07:03:52.242Z,3.90
2023-02-02T07:06:20.273Z,3.85
2023-02-02T07:08:49.493Z,3.82
2023-02-02T07:11:30.583Z,3.83
2023-02-02T07:13:58.170Z,3.92
2023-02-02T07:23:36.509Z,4.00
2023-02-02T07:30:15.475Z,3.93
2023-02-02T07:33:54.033Z,3.96
2023-02-02T07:39:43.593Z,4.05
2023-02-02T07:42:46.507Z,4.15
2023-02-02T07:46:13.853Z,4.29
2023-02-02T07:58:10.885Z,4.07
2023-02-02T08:00:37.526Z,3.93
2023-02-02T08:03:04.102Z,3.96
2023-02-02T08:05:30.596Z,4.08
2023-02-02T08:07:57.076Z,4.13
2023-02-02T08:10:23.626Z,4.15
2023-02-02T08:12:50.109Z,4.23
2023-02-02T08:15:16.619Z,4.19
2023-02-02T08:17:50.112Z,4.34
2023-02-02T08:20:16.558Z,4.42
2023-02-02T08:22:43.000Z,4.52
2023-02-02T08:25:09.707Z,4.62
2023-02-02T08:27:37.880Z,4.65
2023-02-02T08:30:04.734Z,4.52
2023-02-02T08:32:31.429Z,4.26
2023-02-02T08:34:57.896Z,4.25
2023-02-02T08:37:24.323Z,4.15
2023-02-02T08:39:51.575Z,4.07
2023-02-02T08:42:18.145Z,4.09
2023-02-02T08:46:02.229Z,4.26
2023-02-02T08:47:33.471Z,4.46
2023-02-02T08:50:01.137Z,4.76
2023-02-02T08:52:27.925Z,5.09
2023-02-02T08:54:55.006Z,5.13
2023-02-02T08:57:22.323Z,5.30
2023-02-02T08:59:49.579Z,5.25
2023-02-02T09:02:17.140Z,5.60
2023-02-02T09:04:45.709Z,5.56
2023-02-02T09:07:12.799Z,5.61
2023-02-02T09:09:40.071Z,5.74
2023-02-02T09:12:07.135Z,5.61
2023-02-02T09:14:34.523Z,5.74
2023-02-02T09:17:02.031Z,6.00
2023-02-02T09:19:29.863Z,6.10
2023-02-02T09:21:57.114Z,6.42
2023-02-02T09:24:24.375Z,6.00
2023-02-02T09:26:52.293Z,5.91
2023-02-02T09:29:19.167Z,6.45
2023-02-02T09:31:47.626Z,6.29
2023-02-02T09:34:15.790Z,6.15
2023-02-02T09:36:44.108Z,5.93
2023-02-02T09:39:13.848Z,5.74
2023-02-02T09:41:41.395Z,5.77
2023-02-02T09:44:26.663Z,5.78
2023-02-02T09:47:05.828Z,5.75
2023-02-02T09:49:42.259Z,5.73
2023-02-02T09:52:11.612Z,5.77
2023-02-02T09:54:44.154Z,5.77
2023-02-02T09:57:32.055Z,6.10
2023-02-02T10:00:00.086Z,6.50
2023-02-02T10:02:39.286Z,6.55
2023-02-02T10:05:26.574Z,6.29
2023-02-02T10:07:58.392Z,5.99
2023-02-02T10:10:30.523Z,5.92
2023-02-02T10:20:39.673Z,6.32
2023-02-02T10:23:25.121Z,6.28
2023-02-02T10:46:46.588Z,5.86
2023-02-02T10:49:47.023Z,6.37
2023-02-02T10:59:43.160Z,5.94
2023-02-02T11:03:20.152Z,5.96
2023-02-02T11:11:30.136Z,6.02
2023-02-02T11:16:56.656Z,6.33
2023-02-02T11:19:53.191Z,6.33
2023-02-02T11:34:00.500Z,6.32
2023-02-02T11:37:15.661Z,6.39
2023-02-02T11:39:54.224Z,6.19
2023-02-02T11:48:37.794Z,6.37
2023-02-02T11:51:13.313Z,6.21
2023-02-02T11:53:57.165Z,6.18
2023-02-02T11:56:25.536Z,6.50
2023-02-02T11:58:59.307Z,6.35
2023-02-02T12:01:29.016Z,6.11
2023-02-02T12:03:57.290Z,6.10
2023-02-02T12:06:25.465Z,6.07
2023-02-02T12:08:57.458Z,5.94
2023-02-02T12:11:39.171Z,6.00
2023-02-02T12:14:12.055Z,6.08
2023-02-02T12:16:57.125Z,6.14
2023-02-02T12:19:26.794Z,6.30
2023-02-02T12:22:06.922Z,6.49
2023-02-02T12:24:42.600Z,6.46
2023-02-02T12:27:29.329Z,6.24
2023-02-02T12:29:55.780Z,5.38
2023-02-02T12:32:48.516Z,4.69
2023-02-02T12:35:33.763Z,4.32
2023-02-02T12:38:29.883Z,4.25
2023-02-02T12:41:10.410Z,4.10
2023-02-02T12:43:36.905Z,4.10
2023-02-02T12:46:11.713Z,4.04
2023-02-02T12:48:43.549Z,3.98
2023-02-02T12:51:09.999Z,3.92
2023-02-02T12:54:33.065Z,3.91
2023-02-02T12:56:49.464Z,4.01
2023-02-02T12:59:24.959Z,4.09
2023-02-02T13:01:57.642Z,4.15
2023-02-02T13:04:33.370Z,4.12
2023-02-02T13:07:02.706Z,4.01
2023-02-02T13:09:38.204Z,3.95
2023-02-02T13:12:09.805Z,4.00
2023-02-02T13:14:48.922Z,4.12
2023-02-02T13:17:19.508Z,4.41
2023-02-02T13:19:54.674Z,4.69
2023-02-02T13:22:32.053Z,4.79
2023-02-02T13:25:01.334Z,4.71
2023-02-02T13:27:29.679Z,4.87
2023-02-02T13:29:56.185Z,4.94
2023-02-02T13:32:38.287Z,5.17
2023-02-02T13:35:12.258Z,5.39
2023-02-02T13:37:45.026Z,5.35
2023-02-02T13:40:17.512Z,5.50
2023-02-02T13:42:49.182Z,5.70
2023-02-02T13:45:21.470Z,5.62
2023-02-02T13:47:52.151Z,5.57
2023-02-02T13:50:22.068Z,5.60
2023-02-02T13:52:48.523Z,5.54
2023-02-02T13:55:32.718Z,5.46
2023-02-02T14:00:37.724Z,5.40
2023-02-02T14:03:06.168Z,5.29
2023-02-02T14:05:40.373Z,5.44
2023-02-02T14:08:24.461Z,5.40
2023-02-02T14:10:53.957Z,5.34
2023-02-02T14:13:41.691Z,5.37
2023-02-02T14:16:19.671Z,5.29
2023-02-02T14:18:51.956Z,5.31
2023-02-02T14:21:33.829Z,5.14
2023-02-02T14:24:04.817Z,5.08
2023-02-02T14:26:45.775Z,5.03
2023-02-02T14:29:41.897Z,4.93
2023-02-02T14:32:29.677Z,4.80
2023-02-02T14:35:08.526Z,4.67
2023-02-02T14:37:41.669Z,4.63
2023-02-02T14:40:11.024Z,4.68
2023-02-02T14:43:05.347Z,4.59
2023-02-02T14:45:39.325Z,4.58
2023-02-02T14:48:10.225Z,4.52
2023-02-02T14:50:39.500Z,4.42
2023-02-02T14:53:12.014Z,4.39
2023-02-02T14:55:51.032Z,4.35
2023-02-02T14:58:26.292Z,4.35
2023-02-02T15:01:05.012Z,4.44
2023-02-02T15:03:37.369Z,4.38
2023-02-02T15:06:08.821Z,4.50
2023-02-02T15:08:35.428Z,4.34
2023-02-02T15:11:23.390Z,4.43
2023-02-02T15:13:56.943Z,4.35
2023-02-02T15:16:29.718Z,4.23
2023-02-02T15:19:08.437Z,4.35
2023-02-02T15:21:38.124Z,4.19
2023-02-02T15:24:04.947Z,4.27
2023-02-02T15:26:34.862Z,4.29
2023-02-02T15:29:02.997Z,4.14
2023-02-02T15:31:29.514Z,4.07
2023-02-02T15:33:59.026Z,4.03
2023-02-02T15:36:26.771Z,3.93
2023-02-02T15:38:55.548Z,3.95
2023-02-02T15:41:33.591Z,3.91
2023-02-02T15:44:00.395Z,3.82
2023-02-02T15:46:29.215Z,3.63
2023-02-02T15:49:31.436Z,3.68
2023-02-02T15:52:01.401Z,3.53
2023-02-02T15:54:35.574Z,3.37
2023-02-02T15:57:03.406Z,3.12
2023-02-02T15:59:40.013Z,3.10
2023-02-02T16:02:06.529Z,2.98
2023-02-02T16:04:40.136Z,2.87
2023-02-02T16:07:11.216Z,2.85
2023-02-02T16:09:38.947Z,2.69
2023-02-02T16:12:06.240Z,2.73
2023-02-02T16:14:36.236Z,2.57
2023-02-02T16:17:21.750Z,2.37
2023-02-02T16:19:50.373Z,2.19
2023-02-02T16:22:18.165Z,2.02
2023-02-02T16:24:48.083Z,1.86
2023-02-02T16:27:17.910Z,1.76
2023-02-02T16:29:47.357Z,1.64
2023-02-02T16:32:26.064Z,1.50
2023-02-02T16:34:52.631Z,1.45
2023-02-02T16:37:29.668Z,1.37
2023-02-02T16:39:57.149Z,1.31
2023-02-02T16:42:28.268Z,1.23
2023-02-02T16:44:59.377Z,1.16
2023-02-02T16:47:25.932Z,1.03
2023-02-02T16:49:53.747Z,0.93
2023-02-02T16:52:21.413Z,0.86
2023-02-02T16:54:55.216Z,0.82
2023-02-02T16:57:23.726Z,0.71
2023-02-02T16:59:51.969Z,0.67
2023-02-02T17:02:21.315Z,0.61
2023-02-02T17:04:49.555Z,0.59
2023-02-02T17:07:17.014Z,0.45
2023-02-02T17:09:47.809Z,0.38
2023-02-02T17:12:35.025Z,0.33
2023-02-02T17:15:17.262Z,0.27
2023-02-02T17:17:48.664Z,0.21
2023-02-02T17:20:16.124Z,0.14
2023-02-02T17:22:43.879Z,0.08
2023-02-02T17:25:15.342Z,0.06
2023-02-02T17:27:41.809Z,0.02
2023-02-02T17:30:14.091Z,0.01
2023-02-02T17:32:40.728Z,-0.03
2023-02-02T17:35:21.970Z,-0.14
2023-02-02T17:37:48.912Z,-0.13
2023-02-02T17:40:16.219Z,-0.17
2023-02-02T17:42:44.284Z,-0.24
2023-02-02T17:45:15.010Z,-0.30
2023-02-02T17:47:41.468Z,-0.40
2023-02-02T17:50:08.012Z,-0.44
2023-02-02T17:52:34.516Z,-0.50
2023-02-02T17:55:00.986Z,-0.52
2023-02-02T17:57:27.487Z,-0.47
2023-02-02T17:59:53.943Z,-0.44
2023-02-02T18:02:20.575Z,-0.45
2023-02-02T18:04:46.997Z,-0.50
2023-02-02T18:07:13.550Z,-0.52
2023-02-02T18:09:40.291Z,-0.59
2023-02-02T18:12:07.422Z,-0.61
2023-02-02T18:14:35.548Z,-0.59
2023-02-02T18:17:02.429Z,-0.62
2023-02-02T18:19:28.986Z,-0.59
2023-02-02T18:21:55.488Z,-0.58
2023-02-02T18:24:21.924Z,-0.52
2023-02-02T18:26:48.439Z,-0.53
2023-02-02T18:29:14.916Z,-0.54
2023-02-02T18:31:42.410Z,-0.46
2023-02-02T18:34:09.019Z,-0.55
2023-02-02T18:36:36.250Z,-0.62
2023-02-02T18:39:02.751Z,-0.65
2023-02-02T18:41:29.312Z,-0.70
2023-02-02T18:43:55.956Z,-0.74
2023-02-02T18:46:23.012Z,-0.77
2023-02-02T18:48:49.492Z,-0.75
2023-02-02T18:51:16.895Z,-0.74
2023-02-02T18:53:43.825Z,-0.76
2023-02-02T18:56:10.967Z,-0.81
2023-02-02T18:58:37.479Z,-0.82
2023-02-02T19:01:08.322Z,-0.80
2023-02-02T19:03:36.689Z,-0.80
2023-02-02T19:06:23.140Z,-0.81
2023-02-02T19:08:49.646Z,-0.84
2023-02-02T19:11:18.017Z,-0.92
2023-02-02T19:13:44.634Z,-1.02
2023-02-02T19:16:30.303Z,-1.05
2023-02-02T19:19:11.764Z,-1.07
2023-02-02T19:21:38.223Z,-1.08
2023-02-02T19:24:07.067Z,-1.02
2023-02-02T19:26:35.781Z,-1.04
2023-02-02T19:29:05.805Z,-1.06
2023-02-02T19:31:32.374Z,-1.04
2023-02-02T19:33:59.141Z,-1.10
2023-02-02T19:36:27.811Z,-1.19
2023-02-02T19:39:11.248Z,-1.12
2023-02-02T19:41:39.407Z,-1.03
2023-02-02T19:44:19.760Z,-1.00
2023-02-02T19:46:48.435Z,-0.96
2023-02-02T19:49:17.823Z,-0.91
2023-02-02T19:51:48.685Z,-0.93
2023-02-02T19:54:27.070Z,-0.92
2023-02-02T19:56:55.587Z,-0.90
2023-02-02T19:59:22.470Z,-0.86
2023-02-02T20:01:50.775Z,-0.82
2023-02-02T20:04:18.580Z,-0.81
2023-02-02T20:06:58.066Z,-0.75
2023-02-02T20:09:28.622Z,-0.78
2023-02-02T20:11:56.656Z,-0.72
2023-02-02T20:14:29.100Z,-0.66
2023-02-02T20:16:57.885Z,-0.62
2023-02-02T20:19:26.880Z,-0.61
2023-02-02T20:21:53.674Z,-0.63
2023-02-02T20:24:23.092Z,-0.58
2023-02-02T20:26:50.467Z,-0.59
2023-02-02T20:29:23.939Z,-0.52
2023-02-02T20:31:52.056Z,-0.49
2023-02-02T20:34:26.893Z,-0.50
2023-02-02T20:36:54.336Z,-0.42
2023-02-02T20:39:34.710Z,-0.37
2023-02-02T20:42:01.829Z,-0.31
2023-02-02T20:44:29.435Z,-0.30
2023-02-02T20:46:56.478Z,-0.31
2023-02-02T20:49:25.594Z,-0.30
2023-02-02T20:51:55.794Z,-0.31
2023-02-02T20:54:23.308Z,-0.29
2023-02-02T20:56:49.965Z,-0.34
2023-02-02T20:59:16.753Z,-0.36
2023-02-02T21:01:43.255Z,-0.38
2023-02-02T21:04:10.031Z,-0.37
2023-02-02T21:06:37.926Z,-0.38
2023-02-02T21:09:04.971Z,-0.41
2023-02-02T21:11:31.427Z,-0.40
2023-02-02T21:13:57.863Z,-0.40
2023-02-02T21:16:24.769Z,-0.43
2023-02-02T21:18:51.427Z,-0.42
2023-02-02T21:21:18.936Z,-0.46
2023-02-02T21:23:48.689Z,-0.45
2023-02-02T21:26:15.368Z,-0.43
2023-02-02T21:28:41.904Z,-0.42
2023-02-02T21:31:08.797Z,-0.40
2023-02-02T21:33:35.661Z,-0.44
2023-02-02T21:36:10.265Z,-0.45
2023-02-02T21:38:36.772Z,-0.41
2023-02-02T21:41:09.210Z,-0.41
2023-02-02T21:43:35.630Z,-0.45
2023-02-02T21:46:03.386Z,-0.44
2023-02-02T21:48:33.411Z,-0.43
2023-02-02T21:51:01.815Z,-0.46
2023-02-02T21:53:28.304Z,-0.50
2023-02-02T21:55:56.191Z,-0.51
2023-02-02T21:58:25.788Z,-0.49
2023-02-02T22:00:53.763Z,-0.44
2023-02-02T22:03:34.786Z,-0.44
2023-02-02T22:06:21.277Z,-0.43
2023-02-02T22:08:48.904Z,-0.43
2023-02-02T22:11:34.141Z,-0.40
2023-02-02T22:14:12.926Z,-0.37
2023-02-02T22:16:44.285Z,-0.29
2023-02-02T22:19:20.300Z,-0.28
2023-02-02T22:21:46.809Z,-0.20
2023-02-02T22:24:13.426Z,-0.16
2023-02-02T22:26:39.890Z,-0.12
2023-02-02T22:29:17.252Z,-0.11
2023-02-02T22:31:44.022Z,-0.06
2023-02-02T22:34:10.551Z,-0.01
2023-02-02T22:36:37.030Z,-0.01
2023-02-02T22:39:03.490Z,0.04
2023-02-02T22:41:30.010Z,0.08
2023-02-02T22:43:56.479Z,0.10
2023-02-02T22:46:23.022Z,0.11
2023-02-02T22:48:49.460Z,0.16
2023-02-02T22:51:15.931Z,0.19
2023-02-02T22:53:42.397Z,0.21
2023-02-02T22:56:08.884Z,0.22
2023-02-02T22:58:35.379Z,0.25
2023-02-02T23:01:01.862Z,0.31
2023-02-02T23:03:28.334Z,0.35
2023-02-02T23:05:54.793Z,0.41
2023-02-02T23:08:21.819Z,0.49
2023-02-02T23:10:48.312Z,0.48
2023-02-02T23:13:14.752Z,0.51
2023-02-02T23:15:41.277Z,0.54
2023-02-02T23:18:07.797Z,0.59
2023-02-02T23:20:34.251Z,0.60
2023-02-02T23:23:00.815Z,0.61
2023-02-02T23:25:27.391Z,0.67
2023-02-02T23:27:53.981Z,0.66
2023-02-02T23:30:22.234Z,0.74
2023-02-02T23:32:48.982Z,0.73
2023-02-02T23:35:15.544Z,0.79
2023-02-02T23:37:42.000Z,0.86
2023-02-02T23:40:08.707Z,0.83
2023-02-02T23:42:35.207Z,0.89
2023-02-02T23:45:01.697Z,0.89
2023-02-02T23:47:28.224Z,0.92
2023-02-02T23:49:54.772Z,0.90
2023-02-02T23:52:21.232Z,0.91
2023-02-02T23:54:47.878Z,0.96
2023-02-02T23:57:14.363Z,1.00
2023-02-02T23:59:40.913Z,1.00
